Plesetsk, Russia
Current Conditions -  °F | °C
As of 3:30 AM on Wednesday 22 Oct 2014 (Local Time) from ULAA Reporting Station
Clear Clear  
Wind Chill: -9°   Ceiling: Unl
Heat Index:   Visibility: 6mi
Dew Point:   Wind: 7mph
Humidity: 92%   Direction: 60°ENE
Pressure: 30.21"   Gusts: NA
Location:  62.72°N, 40.28°E
Report Text: ULAA 220030Z 06003MPS CAVOK M16/M17 Q1023 BECMG 1000 SN BR BKN003 RMK QFE767/1022 SC060
Loading
Personal Weather Stations






























Interactive Weather Map
Tropical Storm Tracking
New forecast layout! Learn more

10-Day Weather Forecast

Advertisements
Track Severe Weather on mobile